createdAt,value
2022-12-23T00:01:22.333Z,12.86
2022-12-23T00:03:49.116Z,12.96
2022-12-23T00:06:18.269Z,12.98
2022-12-23T00:08:45.280Z,12.99
2022-12-23T00:11:13.543Z,13.00
2022-12-23T00:13:40.116Z,12.94
2022-12-23T00:16:08.560Z,12.80
2022-12-23T00:18:35.912Z,12.80
2022-12-23T00:21:08.567Z,12.75
2022-12-23T00:23:39.026Z,12.81
2022-12-23T00:26:06.197Z,12.83
2022-12-23T00:28:33.192Z,12.90
2022-12-23T00:31:02.627Z,12.88
2022-12-23T00:33:31.551Z,12.89
2022-12-23T00:35:58.438Z,12.79
2022-12-23T00:38:25.671Z,12.51
2022-12-23T00:40:53.448Z,12.62
2022-12-23T00:43:20.056Z,12.65
2022-12-23T00:45:46.622Z,12.64
2022-12-23T00:48:13.433Z,12.75
2022-12-23T00:50:40.840Z,12.71
2022-12-23T00:53:07.557Z,12.68
2022-12-23T00:55:34.074Z,12.73
2022-12-23T00:58:01.890Z,12.58
2022-12-23T01:00:29.053Z,12.65
2022-12-23T01:02:55.630Z,12.69
2022-12-23T01:05:22.383Z,12.69
2022-12-23T01:07:48.955Z,12.57
2022-12-23T01:10:15.474Z,12.58
2022-12-23T01:12:42.047Z,12.43
2022-12-23T01:15:10.660Z,12.46
2022-12-23T01:17:37.404Z,12.64
2022-12-23T01:20:04.671Z,12.50
2022-12-23T01:22:31.164Z,12.66
2022-12-23T01:24:57.711Z,12.79
2022-12-23T01:27:24.194Z,12.74
2022-12-23T01:29:50.702Z,12.67
2022-12-23T01:32:18.713Z,12.57
2022-12-23T01:34:45.275Z,12.64
2022-12-23T01:37:11.782Z,12.63
2022-12-23T01:39:38.414Z,12.64
2022-12-23T01:42:09.712Z,12.46
2022-12-23T01:44:54.904Z,12.62
2022-12-23T01:47:31.874Z,12.69
2022-12-23T01:50:04.987Z,12.73
2022-12-23T01:52:34.893Z,12.76
2022-12-23T01:55:01.517Z,12.77
2022-12-23T01:57:28.956Z,12.91
2022-12-23T01:59:55.566Z,12.76
2022-12-23T02:02:22.265Z,12.87
2022-12-23T02:04:51.351Z,12.79
2022-12-23T02:07:18.866Z,12.53
2022-12-23T02:09:45.345Z,12.70
2022-12-23T02:12:36.211Z,12.77
2022-12-23T02:15:14.492Z,12.68
2022-12-23T02:17:52.217Z,12.60
2022-12-23T02:20:59.059Z,12.78
2022-12-23T02:23:52.359Z,12.67
2022-12-23T02:26:42.519Z,12.70
2022-12-23T02:29:42.392Z,12.50
2022-12-23T02:32:15.776Z,12.83
2022-12-23T02:34:52.344Z,12.75
2022-12-23T02:37:24.078Z,12.83
2022-12-23T02:39:55.725Z,12.67
2022-12-23T02:42:25.960Z,12.83
2022-12-23T02:44:59.418Z,12.83
2022-12-23T02:47:31.791Z,12.64
2022-12-23T02:50:03.601Z,12.88
2022-12-23T02:52:34.436Z,12.84
2022-12-23T02:55:06.578Z,12.59
2022-12-23T02:57:37.036Z,12.81
2022-12-23T03:00:06.339Z,12.83
2022-12-23T03:02:36.809Z,12.72
2022-12-23T03:05:04.114Z,12.60
2022-12-23T03:07:33.389Z,12.88
2022-12-23T03:10:08.366Z,12.68
2022-12-23T03:12:46.355Z,12.79
2022-12-23T03:15:21.586Z,12.75
2022-12-23T03:17:59.138Z,12.86
2022-12-23T03:20:34.606Z,12.82
2022-12-23T03:23:08.012Z,12.90
2022-12-23T03:25:40.530Z,12.76
2022-12-23T03:28:11.616Z,12.76
2022-12-23T03:30:43.125Z,12.96
2022-12-23T03:33:17.062Z,12.96
2022-12-23T03:35:48.939Z,12.98
2022-12-23T03:38:18.446Z,12.81
2022-12-23T03:40:49.224Z,12.86
2022-12-23T03:43:20.880Z,12.90
2022-12-23T03:45:52.409Z,12.87
2022-12-23T03:48:25.115Z,12.92
2022-12-23T03:50:56.564Z,12.97
2022-12-23T03:53:27.572Z,13.01
2022-12-23T03:55:56.665Z,12.98
2022-12-23T03:58:35.053Z,12.90
2022-12-23T04:01:10.183Z,12.67
2022-12-23T04:03:47.156Z,12.79
2022-12-23T04:06:17.717Z,12.67
2022-12-23T04:08:48.323Z,12.70
2022-12-23T04:11:14.979Z,12.64
2022-12-23T04:13:41.551Z,12.75
2022-12-23T04:16:08.307Z,12.69
2022-12-23T04:18:35.017Z,12.80
2022-12-23T04:21:03.112Z,12.66
2022-12-23T04:23:29.584Z,12.62
2022-12-23T04:25:56.115Z,12.61
2022-12-23T04:28:22.545Z,12.76
2022-12-23T04:30:49.049Z,12.69
2022-12-23T04:33:15.573Z,12.94
2022-12-23T04:35:42.103Z,12.80
2022-12-23T04:38:09.940Z,12.77
2022-12-23T04:40:36.540Z,12.62
2022-12-23T04:43:03.045Z,12.37
2022-12-23T04:45:29.644Z,12.63
2022-12-23T04:47:56.107Z,12.60
2022-12-23T04:50:22.752Z,12.52
2022-12-23T04:52:49.343Z,12.72
2022-12-23T04:55:17.218Z,12.73
2022-12-23T04:57:43.682Z,12.60
2022-12-23T05:00:11.278Z,12.67
2022-12-23T05:02:37.930Z,12.81
2022-12-23T05:05:05.117Z,12.63
2022-12-23T05:07:31.797Z,12.69
2022-12-23T05:09:58.296Z,12.71
2022-12-23T05:12:26.131Z,12.56
2022-12-23T05:14:52.867Z,12.74
2022-12-23T05:17:19.358Z,12.83
2022-12-23T05:19:45.954Z,12.80
2022-12-23T05:22:12.513Z,12.66
2022-12-23T05:24:38.969Z,12.65
2022-12-23T05:27:05.583Z,12.86
2022-12-23T05:29:33.420Z,12.77
2022-12-23T05:31:59.946Z,12.75
2022-12-23T05:34:26.615Z,12.59
2022-12-23T05:36:53.109Z,12.75
2022-12-23T05:39:19.574Z,12.69
2022-12-23T05:41:46.125Z,12.40
2022-12-23T05:44:12.633Z,12.79
2022-12-23T05:46:40.543Z,12.75
2022-12-23T05:49:07.031Z,12.77
2022-12-23T05:51:33.671Z,12.85
2022-12-23T05:54:00.191Z,12.91
2022-12-23T05:56:26.747Z,12.84
2022-12-23T05:58:53.489Z,12.89
2022-12-23T06:01:20.007Z,12.79
2022-12-23T06:03:48.141Z,12.72
2022-12-23T06:06:14.773Z,12.83
2022-12-23T06:08:41.282Z,12.87
2022-12-23T06:11:07.947Z,12.88
2022-12-23T06:13:34.506Z,12.89
2022-12-23T06:16:01.134Z,12.78
2022-12-23T06:18:27.644Z,12.72
2022-12-23T06:21:00.180Z,12.76
2022-12-23T06:23:26.657Z,12.78
2022-12-23T06:25:58.812Z,12.79
2022-12-23T06:28:25.555Z,12.60
2022-12-23T06:30:52.795Z,12.62
2022-12-23T06:33:19.267Z,12.69
2022-12-23T06:35:45.777Z,12.54
2022-12-23T06:38:13.795Z,12.69
2022-12-23T06:40:40.470Z,12.62
2022-12-23T06:43:07.043Z,12.62
2022-12-23T06:45:33.523Z,12.56
2022-12-23T06:48:00.012Z,12.66
2022-12-23T06:50:26.546Z,12.80
2022-12-23T06:52:53.033Z,12.78
2022-12-23T06:55:20.886Z,12.83
2022-12-23T06:57:49.128Z,12.86
2022-12-23T07:00:16.632Z,12.80
2022-12-23T07:02:43.252Z,12.81
2022-12-23T07:05:09.776Z,12.87
2022-12-23T07:07:36.412Z,12.67
2022-12-23T07:10:03.274Z,12.77
2022-12-23T07:12:31.075Z,12.85
2022-12-23T07:14:57.644Z,12.80
2022-12-23T07:17:24.130Z,12.85
2022-12-23T07:19:50.963Z,12.89
2022-12-23T07:22:17.460Z,12.54
2022-12-23T07:24:43.979Z,12.61
2022-12-23T07:27:10.754Z,12.77
2022-12-23T07:29:38.556Z,12.49
2022-12-23T07:32:05.404Z,12.59
2022-12-23T07:34:32.041Z,12.59
2022-12-23T07:36:58.533Z,12.72
2022-12-23T07:39:25.089Z,12.76
2022-12-23T07:42:08.894Z,12.63
2022-12-23T07:44:39.376Z,12.73
2022-12-23T07:47:05.861Z,12.72
2022-12-23T07:49:32.417Z,12.63
2022-12-23T07:51:58.930Z,12.77
2022-12-23T07:54:25.396Z,12.80
2022-12-23T07:56:51.922Z,12.88
2022-12-23T07:59:18.423Z,12.82
2022-12-23T08:01:46.427Z,12.65
2022-12-23T08:04:13.020Z,12.90
2022-12-23T08:06:39.551Z,12.83
2022-12-23T08:09:06.043Z,12.71
2022-12-23T08:11:32.528Z,12.89
2022-12-23T08:13:59.075Z,12.84
2022-12-23T08:16:25.686Z,12.83
2022-12-23T08:18:53.650Z,12.97
2022-12-23T08:21:20.220Z,12.98
2022-12-23T08:23:47.582Z,12.99
2022-12-23T08:26:16.942Z,13.08
2022-12-23T08:28:44.253Z,13.09
2022-12-23T08:31:12.980Z,12.99
2022-12-23T08:33:41.884Z,13.11
2022-12-23T08:36:19.092Z,13.20
2022-12-23T08:38:49.399Z,13.20
2022-12-23T08:41:18.679Z,13.15
2022-12-23T08:43:45.365Z,13.22
2022-12-23T08:46:12.117Z,13.28
2022-12-23T08:48:42.501Z,13.37
2022-12-23T08:51:15.061Z,13.31
2022-12-23T08:53:41.523Z,13.23
2022-12-23T08:56:10.610Z,13.32
2022-12-23T08:58:38.060Z,13.40
2022-12-23T09:01:05.941Z,13.46
2022-12-23T09:03:39.666Z,13.39
2022-12-23T09:06:07.725Z,13.35
2022-12-23T09:08:35.978Z,13.48
2022-12-23T09:11:03.526Z,13.52
2022-12-23T09:13:48.100Z,13.54
2022-12-23T09:16:15.358Z,13.22
2022-12-23T09:18:43.272Z,13.16
2022-12-23T09:21:26.767Z,13.15
2022-12-23T09:23:54.999Z,13.39
2022-12-23T09:26:24.563Z,13.48
2022-12-23T09:28:53.426Z,13.48
2022-12-23T09:31:25.218Z,13.50
2022-12-23T09:33:53.881Z,13.56
2022-12-23T09:36:21.267Z,13.59
2022-12-23T09:38:48.207Z,13.63
2022-12-23T09:41:33.419Z,13.71
2022-12-23T09:44:14.967Z,13.50
2022-12-23T09:46:47.625Z,13.66
2022-12-23T09:49:17.490Z,13.55
2022-12-23T09:51:45.641Z,13.68
2022-12-23T09:54:17.917Z,13.68
2022-12-23T09:56:51.178Z,13.70
2022-12-23T09:59:29.110Z,13.63
2022-12-23T10:02:00.767Z,13.56
2022-12-23T10:04:46.857Z,13.36
2022-12-23T10:07:22.707Z,13.31
2022-12-23T10:09:51.218Z,13.33
2022-12-23T10:12:31.641Z,13.25
2022-12-23T10:15:04.230Z,13.28
2022-12-23T10:17:38.821Z,13.09
2022-12-23T10:20:16.701Z,13.27
2022-12-23T10:22:44.905Z,13.38
2022-12-23T10:25:16.917Z,13.46
2022-12-23T10:27:44.876Z,13.37
2022-12-23T10:30:42.606Z,13.42
2022-12-23T10:33:09.721Z,13.30
2022-12-23T10:35:44.180Z,13.27
2022-12-23T10:38:29.004Z,13.28
2022-12-23T10:41:07.120Z,13.54
2022-12-23T10:43:47.143Z,13.73
2022-12-23T10:46:19.658Z,13.73
2022-12-23T10:48:59.940Z,13.58
2022-12-23T10:51:32.129Z,13.78
2022-12-23T10:54:02.107Z,13.81
2022-12-23T10:56:29.394Z,13.97
2022-12-23T10:58:59.816Z,14.04
2022-12-23T11:01:27.844Z,14.15
2022-12-23T11:04:03.168Z,13.99
2022-12-23T11:06:37.263Z,13.94
2022-12-23T11:09:05.875Z,13.47
2022-12-23T11:11:58.217Z,13.46
2022-12-23T11:14:38.542Z,13.30
2022-12-23T11:17:14.403Z,13.44
2022-12-23T11:19:41.133Z,13.49
2022-12-23T11:22:21.762Z,13.40
2022-12-23T11:24:48.421Z,13.27
2022-12-23T11:27:15.602Z,13.38
2022-12-23T11:29:48.461Z,13.43
2022-12-23T11:32:18.605Z,13.41
2022-12-23T11:34:47.260Z,13.36
2022-12-23T11:37:27.210Z,13.48
2022-12-23T11:39:53.937Z,13.53
2022-12-23T11:42:27.100Z,13.65
2022-12-23T11:44:58.620Z,13.77
2022-12-23T11:47:27.886Z,14.01
2022-12-23T11:49:55.823Z,14.23
2022-12-23T11:52:24.198Z,14.33
2022-12-23T11:54:54.543Z,14.30
2022-12-23T11:57:24.664Z,14.28
2022-12-23T11:59:59.939Z,14.23
2022-12-23T12:02:34.429Z,14.00
2022-12-23T12:05:04.873Z,13.92
2022-12-23T12:07:33.208Z,13.96
2022-12-23T12:10:01.457Z,13.86
2022-12-23T12:12:29.508Z,13.64
2022-12-23T12:14:58.747Z,13.53
2022-12-23T12:17:32.509Z,13.47
2022-12-23T12:20:03.513Z,13.35
2022-12-23T12:22:36.163Z,13.44
2022-12-23T12:25:17.444Z,13.33
2022-12-23T12:27:50.173Z,13.21
2022-12-23T12:30:20.139Z,13.20
2022-12-23T12:32:54.979Z,13.17
2022-12-23T12:35:27.005Z,13.06
2022-12-23T12:37:59.403Z,12.95
2022-12-23T12:40:32.337Z,12.81
2022-12-23T12:43:05.284Z,12.73
2022-12-23T12:45:40.336Z,12.54
2022-12-23T12:48:23.754Z,12.61
2022-12-23T12:50:57.947Z,12.76
2022-12-23T12:53:24.950Z,12.69
2022-12-23T12:55:56.936Z,12.75
2022-12-23T12:58:24.311Z,12.64
2022-12-23T13:01:06.795Z,12.51
2022-12-23T13:03:56.159Z,12.72
2022-12-23T13:06:31.154Z,12.63
2022-12-23T13:09:08.987Z,12.66
2022-12-23T13:11:40.753Z,12.72
2022-12-23T13:14:19.103Z,12.74
2022-12-23T13:16:56.192Z,12.72
2022-12-23T13:19:28.966Z,12.50
2022-12-23T13:22:02.164Z,12.45
2022-12-23T13:24:35.409Z,12.42
2022-12-23T13:27:07.474Z,12.66
2022-12-23T13:29:44.871Z,12.54
2022-12-23T13:32:31.905Z,12.46
2022-12-23T13:35:04.220Z,12.39
2022-12-23T13:37:41.259Z,12.34
2022-12-23T13:40:22.439Z,12.40
2022-12-23T13:42:54.533Z,12.50
2022-12-23T13:45:24.769Z,12.59
2022-12-23T13:48:07.289Z,12.56
2022-12-23T13:50:38.640Z,12.63
2022-12-23T13:53:21.957Z,12.67
2022-12-23T13:55:59.152Z,12.49
2022-12-23T13:58:28.411Z,12.52
2022-12-23T14:01:18.753Z,12.53
2022-12-23T14:03:48.707Z,12.51
2022-12-23T14:06:21.531Z,12.50
2022-12-23T14:08:48.571Z,12.42
2022-12-23T14:11:18.986Z,12.39
2022-12-23T14:13:55.144Z,12.44
2022-12-23T14:16:48.743Z,12.43
2022-12-23T14:19:50.693Z,12.31
2022-12-23T14:22:32.910Z,12.46
2022-12-23T14:25:33.061Z,12.40
2022-12-23T14:28:07.700Z,12.69
2022-12-23T14:30:36.218Z,12.55
2022-12-23T14:33:04.398Z,12.68
2022-12-23T14:35:57.279Z,12.84
2022-12-23T14:38:29.922Z,12.70
2022-12-23T14:41:22.704Z,12.53
2022-12-23T14:43:55.212Z,12.53
2022-12-23T14:46:55.301Z,12.52
2022-12-23T14:49:40.402Z,12.49
2022-12-23T14:52:45.760Z,12.46
2022-12-23T14:55:47.044Z,12.31
2022-12-23T14:58:34.439Z,12.57
2022-12-23T15:01:03.810Z,12.51
2022-12-23T15:03:34.576Z,12.77
2022-12-23T15:06:05.701Z,12.67
2022-12-23T15:08:37.479Z,12.81
2022-12-23T15:11:05.372Z,12.75
2022-12-23T15:13:32.971Z,12.79
2022-12-23T15:16:01.954Z,12.82
2022-12-23T15:18:29.297Z,12.77
2022-12-23T15:21:01.535Z,12.80
2022-12-23T15:23:28.035Z,12.86
2022-12-23T15:25:57.884Z,12.84
2022-12-23T15:28:34.937Z,12.90
2022-12-23T15:31:04.472Z,12.91
2022-12-23T15:36:26.303Z,12.84
2022-12-23T15:38:52.990Z,13.02
2022-12-23T15:41:20.802Z,12.68
2022-12-23T15:43:47.366Z,13.19
2022-12-23T15:46:17.257Z,13.16
2022-12-23T15:48:47.227Z,13.17
2022-12-23T15:51:36.634Z,13.14
2022-12-23T15:54:07.057Z,13.06
2022-12-23T15:56:38.782Z,13.19
2022-12-23T15:59:06.283Z,13.04
2022-12-23T16:01:39.064Z,13.25
2022-12-23T16:07:24.554Z,13.35
2022-12-23T16:09:54.351Z,13.37
2022-12-23T16:12:24.086Z,13.21
2022-12-23T16:14:53.829Z,13.37
2022-12-23T16:17:24.678Z,13.39
2022-12-23T16:19:52.953Z,13.65
2022-12-23T16:22:26.084Z,13.62
2022-12-23T16:24:58.982Z,13.63
2022-12-23T16:27:34.412Z,13.69
2022-12-23T16:30:04.347Z,13.69
2022-12-23T16:32:31.052Z,13.64
2022-12-23T16:35:09.854Z,13.72
2022-12-23T16:37:36.315Z,13.49
2022-12-23T16:40:12.780Z,13.47
2022-12-23T16:42:43.600Z,13.75
2022-12-23T16:45:12.941Z,13.96
2022-12-23T16:47:41.443Z,13.93
2022-12-23T16:50:14.341Z,14.14
2022-12-23T16:52:40.867Z,14.22
2022-12-23T16:55:15.933Z,14.17
2022-12-23T16:57:44.559Z,14.48
2022-12-23T17:00:14.610Z,14.41
2022-12-23T17:02:41.497Z,14.32
2022-12-23T17:05:14.345Z,14.41
2022-12-23T17:07:45.263Z,14.45
2022-12-23T17:10:13.970Z,14.39
2022-12-23T17:12:41.517Z,14.31
2022-12-23T17:15:16.340Z,14.41
2022-12-23T17:17:42.926Z,14.41
2022-12-23T17:20:09.984Z,14.32
2022-12-23T17:22:37.408Z,14.57
2022-12-23T17:25:05.897Z,14.48
2022-12-23T17:27:32.385Z,14.71
2022-12-23T17:29:58.911Z,14.67
2022-12-23T17:32:27.331Z,14.66
2022-12-23T17:34:56.340Z,14.36
2022-12-23T17:37:23.151Z,14.56
2022-12-23T17:39:51.711Z,14.29
2022-12-23T17:42:25.545Z,14.51
2022-12-23T17:44:52.747Z,14.54
2022-12-23T17:47:21.312Z,14.43
2022-12-23T17:49:49.702Z,14.18
2022-12-23T17:52:18.432Z,14.34
2022-12-23T17:54:46.296Z,14.37
2022-12-23T17:57:20.122Z,14.47
2022-12-23T17:59:48.032Z,14.47
2022-12-23T18:02:55.218Z,14.35
2022-12-23T18:05:25.746Z,14.27
2022-12-23T18:07:53.753Z,13.95
2022-12-23T18:10:23.461Z,14.06
2022-12-23T18:12:53.351Z,13.98
2022-12-23T18:15:24.425Z,14.07
2022-12-23T18:17:52.282Z,14.00
2022-12-23T18:20:21.292Z,14.24
2022-12-23T18:22:51.558Z,14.12
2022-12-23T18:25:21.402Z,13.84
2022-12-23T18:27:48.581Z,13.90
2022-12-23T18:30:15.375Z,14.13
2022-12-23T18:32:42.700Z,13.98
2022-12-23T18:35:26.814Z,14.00
2022-12-23T18:37:55.532Z,14.19
2022-12-23T18:40:25.703Z,14.30
2022-12-23T18:42:56.550Z,14.07
2022-12-23T18:45:33.109Z,14.25
2022-12-23T18:48:04.269Z,14.44
2022-12-23T18:50:31.867Z,14.30
2022-12-23T18:52:59.937Z,14.23
2022-12-23T18:55:27.334Z,14.32
2022-12-23T18:57:54.254Z,14.27
2022-12-23T19:00:23.430Z,14.31
2022-12-23T19:02:51.435Z,14.21
2022-12-23T19:05:20.563Z,14.34
2022-12-23T19:07:48.079Z,14.27
2022-12-23T19:10:18.663Z,14.38
2022-12-23T19:12:45.391Z,14.10
2022-12-23T19:15:15.659Z,14.15
2022-12-23T19:17:42.213Z,14.30
2022-12-23T19:20:11.361Z,14.16
2022-12-23T19:22:38.334Z,14.06
2022-12-23T19:25:06.881Z,14.18
2022-12-23T19:27:34.915Z,13.99
2022-12-23T19:30:01.689Z,14.04
2022-12-23T19:32:28.207Z,13.94
2022-12-23T19:34:54.664Z,13.99
2022-12-23T19:37:21.166Z,13.91
2022-12-23T19:39:47.736Z,14.00
2022-12-23T19:42:14.306Z,14.10
2022-12-23T19:44:42.239Z,13.96
2022-12-23T19:47:08.820Z,14.25
2022-12-23T19:49:35.385Z,14.21
2022-12-23T19:52:02.589Z,13.99
2022-12-23T19:54:29.152Z,14.00
2022-12-23T19:56:55.867Z,13.81
2022-12-23T19:59:22.404Z,14.07
2022-12-23T20:01:50.386Z,13.96
2022-12-23T20:04:17.433Z,13.91
2022-12-23T20:06:44.409Z,13.90
2022-12-23T20:09:12.878Z,13.95
2022-12-23T20:11:40.804Z,14.09
2022-12-23T20:14:08.192Z,14.16
2022-12-23T20:16:35.699Z,13.59
2022-12-23T20:19:04.325Z,13.74
2022-12-23T20:21:31.016Z,13.86
2022-12-23T20:23:57.858Z,13.91
2022-12-23T20:26:24.335Z,13.87
2022-12-23T20:28:51.522Z,13.77
2022-12-23T20:31:20.325Z,13.90
2022-12-23T20:33:47.485Z,13.93
2022-12-23T20:36:18.034Z,13.82
2022-12-23T20:38:46.535Z,13.82
2022-12-23T20:41:15.637Z,14.03
2022-12-23T20:43:46.060Z,13.61
2022-12-23T20:46:19.531Z,13.81
2022-12-23T20:48:46.832Z,13.55
2022-12-23T20:51:16.686Z,13.78
2022-12-23T20:53:43.668Z,13.47
2022-12-23T20:56:12.618Z,13.63
2022-12-23T20:58:39.269Z,13.63
2022-12-23T21:01:09.478Z,13.56
2022-12-23T21:03:36.041Z,13.52
2022-12-23T21:06:02.759Z,13.60
2022-12-23T21:08:30.589Z,13.70
2022-12-23T21:10:57.523Z,13.45
2022-12-23T21:13:24.184Z,13.54
2022-12-23T21:15:50.959Z,13.56
2022-12-23T21:18:17.525Z,13.66
2022-12-23T21:20:44.079Z,13.57
2022-12-23T21:23:10.521Z,13.62
2022-12-23T21:25:38.420Z,13.59
2022-12-23T21:28:04.928Z,13.73
2022-12-23T21:30:31.518Z,13.76
2022-12-23T21:32:58.085Z,13.69
2022-12-23T21:35:24.607Z,13.80
2022-12-23T21:37:51.087Z,13.58
2022-12-23T21:40:17.731Z,13.49
2022-12-23T21:42:45.607Z,13.48
2022-12-23T21:45:12.099Z,13.81
2022-12-23T21:47:38.648Z,13.33
2022-12-23T21:50:06.405Z,13.51
2022-12-23T21:52:32.876Z,13.42
2022-12-23T21:54:59.785Z,13.31
2022-12-23T21:57:26.523Z,13.55
2022-12-23T21:59:54.553Z,13.40
2022-12-23T22:02:21.447Z,13.50
2022-12-23T22:04:48.028Z,13.45
2022-12-23T22:07:14.579Z,13.24
2022-12-23T22:09:41.145Z,13.38
2022-12-23T22:12:08.099Z,13.36
2022-12-23T22:14:34.943Z,13.47
2022-12-23T22:17:02.949Z,13.62
2022-12-23T22:19:29.685Z,13.50
2022-12-23T22:21:56.324Z,13.62
2022-12-23T22:24:22.801Z,13.49
2022-12-23T22:26:49.323Z,13.43
2022-12-23T22:29:18.384Z,13.34
2022-12-23T22:31:47.979Z,13.22
2022-12-23T22:34:18.235Z,13.10
2022-12-23T22:36:54.491Z,13.26
2022-12-23T22:39:24.217Z,13.30
2022-12-23T22:41:53.127Z,13.27
2022-12-23T22:44:20.307Z,12.99
2022-12-23T22:46:47.605Z,13.00
2022-12-23T22:49:17.762Z,13.11
2022-12-23T22:51:45.219Z,13.21
2022-12-23T22:54:11.847Z,13.04
2022-12-23T22:56:40.515Z,13.15
2022-12-23T22:59:07.215Z,12.89
2022-12-23T23:01:35.523Z,13.02
2022-12-23T23:04:03.968Z,13.16
2022-12-23T23:06:34.320Z,13.21
2022-12-23T23:09:01.720Z,13.38
2022-12-23T23:11:29.473Z,13.37
2022-12-23T23:13:56.934Z,13.52
2022-12-23T23:16:25.921Z,13.26
2022-12-23T23:18:54.203Z,13.32
2022-12-23T23:21:21.410Z,13.37
2022-12-23T23:23:50.131Z,13.15
2022-12-23T23:26:17.866Z,13.27
2022-12-23T23:28:52.036Z,13.32
2022-12-23T23:34:07.004Z,13.44
2022-12-23T23:36:33.949Z,13.21
2022-12-23T23:39:02.353Z,13.28
2022-12-23T23:45:20.267Z,13.33
2022-12-23T23:47:47.344Z,13.11
2022-12-23T23:50:14.195Z,13.39
2022-12-23T23:52:42.751Z,13.24
2022-12-23T23:55:11.457Z,13.13
2022-12-23T23:57:38.392Z,13.07
